Time;durP1;ratioP1;P1;durP2;ratioP2;P2;SDS_P1;SDS_P2;PMS_P1;PMS_P2;Temp;Humidity;BMP_temperature;BMP_pressure;BME280_temperature;BME280_humidity;BME280_pressure;Samples;Min_cycle;Max_cycle;Signal;HPM_P1;HPM_P2
2023/01/25 00:03:29;;;;;;;22.98;11.77;;;;;;;;;;10535421;28;20122;-75
2023/01/25 00:08:29;;;;;;;22.90;11.63;;;;;;;;;;10532911;28;20161;-77
2023/01/25 00:13:29;;;;;;;24.25;12.52;;;;;;;;;;10538442;28;20074;-75
2023/01/25 00:18:30;;;;;;;23.20;12.05;;;;;;;;;;10561025;28;20024;-79
2023/01/25 00:23:33;;;;;;;21.55;11.93;;;;;;;;;;10545817;28;20594;-73
2023/01/25 00:28:33;;;;;;;21.23;11.50;;;;;;;;;;10556920;28;20035;-74
2023/01/25 00:33:36;;;;;;;21.63;11.07;;;;;;;;;;10567984;28;20031;-79
2023/01/25 00:38:38;;;;;;;22.52;11.80;;;;;;;;;;10546776;28;20361;-76
2023/01/25 00:43:38;;;;;;;20.40;10.63;;;;;;;;;;10550461;28;20051;-76
2023/01/25 00:48:39;;;;;;;22.30;11.07;;;;;;;;;;10534744;28;20028;-78
2023/01/25 00:53:39;;;;;;;21.63;11.43;;;;;;;;;;10573171;28;20036;-77
2023/01/25 00:58:40;;;;;;;22.35;11.82;;;;;;;;;;10533998;28;20099;-76
2023/01/25 01:03:43;;;;;;;21.08;11.25;;;;;;;;;;10526125;28;20118;-75
2023/01/25 01:08:43;;;;;;;18.50;10.68;;;;;;;;;;10545368;28;20472;-73
2023/01/25 01:13:43;;;;;;;19.88;10.98;;;;;;;;;;10555892;28;20040;-75
2023/01/25 01:18:44;;;;;;;24.85;13.00;;;;;;;;;;10552876;28;20036;-82
2023/01/25 01:23:45;;;;;;;21.15;11.55;;;;;;;;;;10565307;28;20047;-74
2023/01/25 01:28:45;;;;;;;25.15;13.13;;;;;;;;;;10548169;28;20544;-74
2023/01/25 01:33:49;;;;;;;23.45;12.50;;;;;;;;;;10577028;28;20024;-74
2023/01/25 01:38:50;;;;;;;22.08;11.07;;;;;;;;;;10562821;27;20032;-74
2023/01/25 01:43:52;;;;;;;24.17;12.02;;;;;;;;;;10558215;28;20474;-76
2023/01/25 01:49:11;;;;;;;23.42;11.63;;;;;;;;;;10544921;28;20046;-75
2023/01/25 01:54:15;;;;;;;22.40;11.23;;;;;;;;;;10553888;28;20055;-75
2023/01/25 01:59:16;;;;;;;18.95;10.98;;;;;;;;;;10545008;28;20036;-73
2023/01/25 02:04:19;;;;;;;19.63;10.70;;;;;;;;;;10539284;28;20547;-74
2023/01/25 02:09:21;;;;;;;18.42;10.40;;;;;;;;;;10557678;28;20055;-80
2023/01/25 02:14:22;;;;;;;18.33;10.00;;;;;;;;;;10532122;28;20160;-77
2023/01/25 02:25:04;;;;;;;19.40;10.30;;;;;;;;;;10533453;28;20052;-78
2023/01/25 02:30:07;;;;;;;18.80;10.00;;;;;;;;;;10519535;28;20072;-75
2023/01/25 02:35:07;;;;;;;20.65;11.23;;;;;;;;;;10499663;28;20047;-76
2023/01/25 02:40:08;;;;;;;18.52;9.77;;;;;;;;;;10544405;28;20040;-74
2023/01/25 02:45:10;;;;;;;22.90;10.07;;;;;;;;;;10497742;28;20039;-77
2023/01/25 02:50:10;;;;;;;17.17;9.45;;;;;;;;;;10504557;28;20055;-75
2023/01/25 02:55:11;;;;;;;20.85;10.38;;;;;;;;;;10461825;28;20500;-74
2023/01/25 03:00:16;;;;;;;18.30;10.75;;;;;;;;;;10499965;28;20035;-76
2023/01/25 03:15:46;;;;;;;;;;;;;;;;;;10555104;28;20138;-75
2023/01/25 03:26:20;;;;;;;21.58;10.95;;;;;;;;;;10577031;28;20047;-75
2023/01/25 03:31:41;;;;;;;20.52;9.43;;;;;;;;;;10529984;28;20054;-75
2023/01/25 03:36:45;;;;;;;20.60;10.38;;;;;;;;;;10544081;28;20131;-75
2023/01/25 03:41:48;;;;;;;20.98;11.55;;;;;;;;;;10523550;28;20063;-76
2023/01/25 03:46:49;;;;;;;20.50;10.37;;;;;;;;;;10504401;28;20772;-77
2023/01/25 03:51:49;;;;;;;20.17;10.38;;;;;;;;;;10523331;28;20070;-75
2023/01/25 03:56:51;;;;;;;20.90;11.00;;;;;;;;;;10518058;28;20081;-75
2023/01/25 04:01:57;;;;;;;20.75;9.85;;;;;;;;;;10534554;28;20027;-77
2023/01/25 04:06:58;;;;;;;19.27;9.80;;;;;;;;;;10544737;28;20110;-76
2023/01/25 04:11:59;;;;;;;18.85;10.38;;;;;;;;;;10525688;28;20051;-75
2023/01/25 04:17:04;;;;;;;20.33;9.80;;;;;;;;;;10532246;28;20131;-78
2023/01/25 04:22:12;;;;;;;17.80;9.52;;;;;;;;;;10537615;28;20484;-76
2023/01/25 04:27:12;;;;;;;17.52;9.45;;;;;;;;;;10521044;28;20051;-76
2023/01/25 04:32:23;;;;;;;18.13;9.32;;;;;;;;;;10528345;28;20044;-77
2023/01/25 04:37:23;;;;;;;15.75;8.85;;;;;;;;;;10519980;28;20527;-78
2023/01/25 04:42:28;;;;;;;15.30;8.75;;;;;;;;;;10539542;28;20139;-75
2023/01/25 04:47:30;;;;;;;17.10;9.13;;;;;;;;;;10522433;28;20136;-76
2023/01/25 04:52:32;;;;;;;17.02;9.20;;;;;;;;;;10560464;28;20120;-75
2023/01/25 04:57:32;;;;;;;18.10;9.10;;;;;;;;;;10539984;28;20082;-76
2023/01/25 05:02:33;;;;;;;16.95;8.15;;;;;;;;;;10520306;28;20098;-75
2023/01/25 05:07:34;;;;;;;15.20;7.75;;;;;;;;;;10563723;27;20499;-78
2023/01/25 05:12:34;;;;;;;18.30;8.85;;;;;;;;;;10609532;27;20039;-74
2023/01/25 05:17:39;;;;;;;14.40;8.30;;;;;;;;;;10551565;28;20051;-75
2023/01/25 05:22:40;;;;;;;15.43;8.82;;;;;;;;;;10552630;28;20042;-73
2023/01/25 05:27:40;;;;;;;15.05;7.97;;;;;;;;;;10533316;28;20046;-75
2023/01/25 05:32:59;;;;;;;14.15;8.45;;;;;;;;;;10537735;28;20388;-75
2023/01/25 05:38:00;;;;;;;15.50;8.57;;;;;;;;;;10533487;28;20032;-77
2023/01/25 05:43:01;;;;;;;18.95;9.07;;;;;;;;;;10585351;27;20089;-77
2023/01/25 05:48:03;;;;;;;16.63;8.35;;;;;;;;;;10547562;28;20375;-75
2023/01/25 05:53:04;;;;;;;15.48;9.43;;;;;;;;;;10564195;28;20054;-74
2023/01/25 06:03:18;;;;;;;18.27;10.02;;;;;;;;;;10562703;28;20044;-75
2023/01/25 06:08:19;;;;;;;18.13;8.55;;;;;;;;;;10555155;28;20042;-78
2023/01/25 06:13:23;;;;;;;17.58;9.30;;;;;;;;;;10550755;28;20031;-75
2023/01/25 06:18:24;;;;;;;18.98;9.93;;;;;;;;;;10534232;28;20404;-78
2023/01/25 06:23:42;;;;;;;19.73;9.48;;;;;;;;;;10528245;28;20069;-75
2023/01/25 06:28:42;;;;;;;19.20;10.25;;;;;;;;;;10549607;28;20077;-75
2023/01/25 06:33:46;;;;;;;18.35;9.85;;;;;;;;;;10548795;28;20051;-77
2023/01/25 06:38:48;;;;;;;20.23;10.32;;;;;;;;;;10537581;28;20043;-74
2023/01/25 06:43:50;;;;;;;21.58;11.25;;;;;;;;;;10529199;28;20477;-76
2023/01/25 06:48:51;;;;;;;19.65;10.45;;;;;;;;;;10550794;28;20039;-76
2023/01/25 06:53:51;;;;;;;17.02;9.32;;;;;;;;;;10525932;28;20040;-78
2023/01/25 06:58:51;;;;;;;18.42;9.85;;;;;;;;;;10520215;28;20096;-74
2023/01/25 07:03:53;;;;;;;16.95;9.80;;;;;;;;;;10522826;28;20047;-76
2023/01/25 07:08:54;;;;;;;24.75;11.63;;;;;;;;;;10555511;28;20035;-77
2023/01/25 07:13:54;;;;;;;17.05;10.55;;;;;;;;;;10568570;28;20053;-79
2023/01/25 07:18:54;;;;;;;19.97;9.57;;;;;;;;;;10569823;28;20111;-74
2023/01/25 07:23:58;;;;;;;16.35;8.65;;;;;;;;;;10536178;28;20328;-79
2023/01/25 07:28:59;;;;;;;16.15;8.70;;;;;;;;;;10545345;28;20051;-79
2023/01/25 07:34:01;;;;;;;17.63;9.88;;;;;;;;;;10534303;28;20042;-79
2023/01/25 07:39:01;;;;;;;16.50;10.27;;;;;;;;;;10549476;28;20044;-77
2023/01/25 07:44:02;;;;;;;15.63;9.27;;;;;;;;;;10533189;28;20059;-76
2023/01/25 07:49:08;;;;;;;18.38;9.60;;;;;;;;;;10541737;28;20050;-77
2023/01/25 07:54:10;;;;;;;18.70;9.10;;;;;;;;;;10550446;28;20376;-81
2023/01/25 07:59:10;;;;;;;20.52;10.38;;;;;;;;;;10543523;28;20036;-77
2023/01/25 08:04:11;;;;;;;18.38;9.98;;;;;;;;;;10547587;28;20596;-75
2023/01/25 08:09:18;;;;;;;20.67;10.23;;;;;;;;;;10553254;28;20039;-80
2023/01/25 08:14:19;;;;;;;19.42;9.68;;;;;;;;;;10551283;28;20036;-78
2023/01/25 08:19:20;;;;;;;18.48;9.02;;;;;;;;;;10534569;28;20498;-76
2023/01/25 08:24:21;;;;;;;20.00;9.90;;;;;;;;;;10556890;28;20127;-76
2023/01/25 08:29:22;;;;;;;18.05;8.75;;;;;;;;;;10542312;28;20452;-76
2023/01/25 08:34:22;;;;;;;20.92;9.98;;;;;;;;;;10557669;28;20028;-77
2023/01/25 08:39:23;;;;;;;20.17;10.68;;;;;;;;;;10538744;28;20040;-74
2023/01/25 08:44:24;;;;;;;31.40;13.77;;;;;;;;;;10562873;28;20036;-78
2023/01/25 08:49:26;;;;;;;20.13;9.77;;;;;;;;;;10571118;28;20090;-75
2023/01/25 08:54:26;;;;;;;20.02;11.25;;;;;;;;;;10540487;28;20097;-75
2023/01/25 08:59:27;;;;;;;21.55;10.93;;;;;;;;;;10532595;28;20051;-75
2023/01/25 09:04:27;;;;;;;18.10;9.73;;;;;;;;;;10551425;28;20377;-81
2023/01/25 09:09:29;;;;;;;19.77;9.30;;;;;;;;;;10571579;28;20281;-78
2023/01/25 09:14:29;;;;;;;18.55;10.45;;;;;;;;;;10560193;28;20039;-76
2023/01/25 09:19:29;;;;;;;20.02;10.60;;;;;;;;;;10569634;28;20503;-78
2023/01/25 09:24:30;;;;;;;21.67;10.98;;;;;;;;;;10550007;28;20047;-75
2023/01/25 09:29:31;;;;;;;21.58;11.15;;;;;;;;;;10524062;28;20123;-76
2023/01/25 09:34:31;;;;;;;20.25;10.65;;;;;;;;;;10518954;28;20380;-78
2023/01/25 09:39:32;;;;;;;22.17;11.07;;;;;;;;;;10549170;28;20348;-77
2023/01/25 09:44:34;;;;;;;21.08;10.70;;;;;;;;;;10558671;28;20047;-75
2023/01/25 09:49:44;;;;;;;20.17;10.10;;;;;;;;;;10557817;28;20120;-76
2023/01/25 09:54:45;;;;;;;16.67;9.90;;;;;;;;;;10563526;28;20051;-76
2023/01/25 09:59:47;;;;;;;18.05;9.05;;;;;;;;;;10548172;28;20043;-75
2023/01/25 10:04:50;;;;;;;18.13;9.98;;;;;;;;;;10547591;28;20079;-75
2023/01/25 10:09:59;;;;;;;21.98;9.85;;;;;;;;;;10539633;28;20063;-77
2023/01/25 10:15:00;;;;;;;21.85;10.80;;;;;;;;;;10539199;28;20039;-75
2023/01/25 10:20:03;;;;;;;21.23;10.52;;;;;;;;;;10551994;28;20035;-76
2023/01/25 10:25:03;;;;;;;;;;;;;;;;;;10562605;28;20407;-75
2023/01/25 10:30:16;;;;;;;22.05;10.52;;;;;;;;;;10553282;28;19935;-79
2023/01/25 10:35:19;;;;;;;22.80;11.32;;;;;;;;;;10534893;28;20554;-76
2023/01/25 10:40:19;;;;;;;;;;;;;;;;;;10562459;28;20032;-74
2023/01/25 10:45:20;;;;;;;18.97;10.40;;;;;;;;;;10556290;28;19920;-76
2023/01/25 10:50:45;;;;;;;17.48;10.48;;;;;;;;;;10557811;28;20028;-77
2023/01/25 10:55:55;;;;;;;18.73;9.45;;;;;;;;;;10556347;28;20067;-80
2023/01/25 11:00:55;;;;;;;18.75;10.07;;;;;;;;;;10530037;28;20522;-77
2023/01/25 11:05:56;;;;;;;20.63;11.18;;;;;;;;;;10554946;28;20039;-75
2023/01/25 11:10:57;;;;;;;21.20;11.15;;;;;;;;;;10538016;28;20036;-76
2023/01/25 11:16:03;;;;;;;20.17;10.65;;;;;;;;;;10531915;28;20148;-78
2023/01/25 11:21:06;;;;;;;19.25;11.07;;;;;;;;;;10556042;28;20054;-77
2023/01/25 11:26:10;;;;;;;19.27;10.38;;;;;;;;;;10556583;28;20502;-75
2023/01/25 11:31:10;;;;;;;;;;;;;;;;;;10569423;28;20150;-77
2023/01/25 11:36:29;;;;;;;20.42;9.88;;;;;;;;;;10581023;28;20002;-76
2023/01/25 11:41:56;;;;;;;21.02;11.75;;;;;;;;;;10568520;28;20368;-78
2023/01/25 11:47:02;;;;;;;20.70;10.25;;;;;;;;;;10513909;28;20051;-75
2023/01/25 11:52:05;;;;;;;21.63;10.68;;;;;;;;;;10558010;28;20537;-77
2023/01/25 11:57:06;;;;;;;17.38;10.00;;;;;;;;;;10554460;28;20085;-76
2023/01/25 12:02:15;;;;;;;15.40;9.63;;;;;;;;;;10545995;28;20028;-77
2023/01/25 12:07:19;;;;;;;18.52;10.85;;;;;;;;;;10545029;28;20047;-76
2023/01/25 12:12:19;;;;;;;;;;;;;;;;;;10556175;28;20044;-76
2023/01/25 12:17:40;;;;;;;12.77;9.20;;;;;;;;;;10537875;28;19920;-77
2023/01/25 12:22:49;;;;;;;21.05;10.55;;;;;;;;;;10544146;28;20070;-76
2023/01/25 12:28:01;;;;;;;17.67;9.80;;;;;;;;;;10554594;28;20499;-78
2023/01/25 12:33:11;;;;;;;20.90;9.88;;;;;;;;;;10536642;28;20123;-76
2023/01/25 12:38:18;;;;;;;19.83;10.60;;;;;;;;;;10553039;28;20032;-76
2023/01/25 12:43:34;;;;;;;19.15;10.13;;;;;;;;;;10551543;28;20040;-79
2023/01/25 12:48:37;;;;;;;18.27;10.23;;;;;;;;;;10551101;28;20084;-78
2023/01/25 12:53:47;;;;;;;21.90;11.13;;;;;;;;;;10552301;28;20044;-76
2023/01/25 12:58:56;;;;;;;19.55;10.25;;;;;;;;;;10550134;28;20036;-83
2023/01/25 13:04:09;;;;;;;22.45;11.32;;;;;;;;;;10559123;28;20044;-76
2023/01/25 13:09:15;;;;;;;22.70;11.43;;;;;;;;;;10558295;28;20434;-79
2023/01/25 13:14:19;;;;;;;20.02;11.55;;;;;;;;;;10552932;28;20042;-79
2023/01/25 13:19:37;;;;;;;17.92;9.95;;;;;;;;;;10569136;28;20059;-76
2023/01/25 13:25:16;;;;;;;22.70;10.80;;;;;;;;;;10538559;28;20070;-78
2023/01/25 13:30:33;;;;;;;20.75;11.02;;;;;;;;;;10407626;28;20087;-78
2023/01/25 13:35:34;;;;;;;18.27;11.02;;;;;;;;;;10545175;28;20052;-76
2023/01/25 13:40:36;;;;;;;20.10;10.07;;;;;;;;;;10534462;28;20407;-77
2023/01/25 13:45:40;;;;;;;21.67;11.75;;;;;;;;;;10558848;27;20040;-77
2023/01/25 13:51:02;;;;;;;22.58;11.88;;;;;;;;;;10541932;28;20425;-78
2023/01/25 13:56:02;;;;;;;22.15;11.73;;;;;;;;;;10532996;28;20127;-76
2023/01/25 14:01:12;;;;;;;22.38;11.48;;;;;;;;;;10554491;28;20043;-78
2023/01/25 14:06:23;;;;;;;20.25;10.98;;;;;;;;;;10560498;28;20074;-76
2023/01/25 14:11:25;;;;;;;21.50;10.93;;;;;;;;;;10549374;28;20154;-83
2023/01/25 14:16:26;;;;;;;20.25;10.60;;;;;;;;;;10558134;28;20096;-81
2023/01/25 14:21:27;;;;;;;18.48;10.38;;;;;;;;;;10569029;28;20036;-77
2023/01/25 14:26:29;;;;;;;20.60;11.25;;;;;;;;;;10554354;28;20044;-77
2023/01/25 14:31:33;;;;;;;20.15;10.98;;;;;;;;;;10573837;28;20024;-82
2023/01/25 14:36:33;;;;;;;20.17;11.38;;;;;;;;;;10579269;28;20044;-76
2023/01/25 14:41:42;;;;;;;21.48;12.10;;;;;;;;;;10572611;27;20040;-77
2023/01/25 14:46:43;;;;;;;22.30;11.95;;;;;;;;;;10583226;28;20047;-77
2023/01/25 14:51:52;;;;;;;24.67;11.90;;;;;;;;;;10528761;28;20040;-79
2023/01/25 14:57:19;;;;;;;22.23;11.65;;;;;;;;;;10561090;28;20301;-78
2023/01/25 15:02:25;;;;;;;19.88;11.18;;;;;;;;;;10540985;28;20150;-79
2023/01/25 15:07:34;;;;;;;22.75;11.23;;;;;;;;;;10525978;28;20801;-77
2023/01/25 15:12:35;;;;;;;20.63;10.75;;;;;;;;;;10528525;28;20117;-77
2023/01/25 15:17:44;;;;;;;18.70;10.60;;;;;;;;;;10524466;28;20524;-76
2023/01/25 15:22:45;;;;;;;19.35;10.32;;;;;;;;;;10553460;28;20118;-78
2023/01/25 15:27:45;;;;;;;20.17;10.50;;;;;;;;;;10567773;28;20091;-81
2023/01/25 15:32:46;;;;;;;20.20;11.63;;;;;;;;;;10549911;28;20055;-80
2023/01/25 15:37:47;;;;;;;21.13;10.70;;;;;;;;;;10544584;27;20366;-81
2023/01/25 15:42:47;;;;;;;18.50;11.57;;;;;;;;;;10580882;28;20035;-78
2023/01/25 15:47:48;;;;;;;21.98;10.90;;;;;;;;;;10586213;28;20078;-85
2023/01/25 15:52:48;;;;;;;21.63;12.23;;;;;;;;;;10564572;28;20114;-77
2023/01/25 15:57:49;;;;;;;21.02;10.93;;;;;;;;;;10568192;28;20150;-76
2023/01/25 16:02:49;;;;;;;20.52;10.10;;;;;;;;;;10563938;28;20505;-77
2023/01/25 16:07:50;;;;;;;21.27;11.60;;;;;;;;;;10522358;28;20487;-79
2023/01/25 16:12:51;;;;;;;19.70;11.10;;;;;;;;;;10525039;28;20158;-81
2023/01/25 16:17:52;;;;;;;22.77;10.98;;;;;;;;;;10568318;28;20044;-81
2023/01/25 16:22:52;;;;;;;17.88;9.85;;;;;;;;;;10583406;28;20028;-76
2023/01/25 16:27:52;;;;;;;21.25;11.38;;;;;;;;;;10573708;28;20032;-78
2023/01/25 16:32:53;;;;;;;19.15;11.23;;;;;;;;;;10545637;28;20036;-80
2023/01/25 16:37:55;;;;;;;21.35;10.88;;;;;;;;;;10571647;28;20028;-77
2023/01/25 16:42:55;;;;;;;24.27;11.13;;;;;;;;;;10571336;28;20036;-78
2023/01/25 16:47:56;;;;;;;22.77;11.30;;;;;;;;;;10572756;28;20040;-82
2023/01/25 16:52:57;;;;;;;21.35;11.18;;;;;;;;;;10553903;28;20032;-76
2023/01/25 16:57:58;;;;;;;23.27;11.38;;;;;;;;;;10566039;28;20538;-78
2023/01/25 17:02:58;;;;;;;22.30;11.25;;;;;;;;;;10589238;28;20043;-80
2023/01/25 17:07:58;;;;;;;25.07;11.47;;;;;;;;;;10576285;28;20054;-78
2023/01/25 17:12:59;;;;;;;24.00;11.75;;;;;;;;;;10579515;28;20289;-83
2023/01/25 17:18:00;;;;;;;23.60;11.88;;;;;;;;;;10559187;28;20127;-81
2023/01/25 17:23:01;;;;;;;23.67;12.77;;;;;;;;;;10534242;28;20081;-79
2023/01/25 17:28:01;;;;;;;23.20;11.57;;;;;;;;;;10553558;28;20055;-79
2023/01/25 17:33:02;;;;;;;25.88;12.15;;;;;;;;;;10543106;28;20099;-81
2023/01/25 17:38:03;;;;;;;26.92;13.05;;;;;;;;;;10549100;27;20101;-79
2023/01/25 17:43:04;;;;;;;24.83;12.37;;;;;;;;;;10554279;27;20072;-81
2023/01/25 17:48:07;;;;;;;24.55;12.35;;;;;;;;;;10561241;28;20691;-81
2023/01/25 17:53:08;;;;;;;27.98;13.48;;;;;;;;;;10580872;28;20089;-80
2023/01/25 17:58:09;;;;;;;27.00;14.18;;;;;;;;;;10551218;28;20046;-80
2023/01/25 18:03:10;;;;;;;24.45;13.38;;;;;;;;;;10542441;28;20036;-80
2023/01/25 18:08:11;;;;;;;27.98;12.95;;;;;;;;;;10542053;28;20043;-80
2023/01/25 18:13:11;;;;;;;26.35;12.75;;;;;;;;;;10545789;28;20483;-80
2023/01/25 18:18:12;;;;;;;27.33;12.90;;;;;;;;;;10529060;28;20055;-79
2023/01/25 18:23:14;;;;;;;32.85;15.35;;;;;;;;;;10538795;28;20477;-79
2023/01/25 18:28:15;;;;;;;28.25;12.95;;;;;;;;;;10573560;28;20483;-83
2023/01/25 18:33:16;;;;;;;30.35;14.88;;;;;;;;;;10559582;28;20061;-80
2023/01/25 18:38:16;;;;;;;27.75;14.32;;;;;;;;;;10563910;28;20028;-80
2023/01/25 18:43:18;;;;;;;30.33;15.80;;;;;;;;;;10531753;28;20174;-81
2023/01/25 18:48:29;;;;;;;29.15;13.95;;;;;;;;;;10544056;28;20040;-80
2023/01/25 18:53:30;;;;;;;29.58;15.75;;;;;;;;;;10534092;28;20150;-80
2023/01/25 18:58:31;;;;;;;30.58;14.80;;;;;;;;;;10559640;28;20028;-83
2023/01/25 19:03:32;;;;;;;34.95;16.45;;;;;;;;;;10550125;28;21223;-77
2023/01/25 19:08:35;;;;;;;30.75;15.38;;;;;;;;;;10549016;28;20036;-80
2023/01/25 19:13:36;;;;;;;33.22;15.00;;;;;;;;;;10556373;28;20028;-81
2023/01/25 19:18:39;;;;;;;31.58;14.45;;;;;;;;;;10553104;28;20395;-78
2023/01/25 19:23:40;;;;;;;33.77;15.20;;;;;;;;;;10563146;28;20054;-85
2023/01/25 19:28:41;;;;;;;30.60;14.27;;;;;;;;;;10557196;28;20464;-79
2023/01/25 19:33:41;;;;;;;27.25;15.30;;;;;;;;;;10576665;28;20039;-79
2023/01/25 19:38:42;;;;;;;35.35;16.55;;;;;;;;;;10586260;27;20020;-84
2023/01/25 19:43:43;;;;;;;32.92;16.63;;;;;;;;;;10615907;28;20043;-77
2023/01/25 19:48:47;;;;;;;37.33;16.75;;;;;;;;;;10583406;28;20384;-75
2023/01/25 19:53:57;;;;;;;36.67;16.58;;;;;;;;;;10529075;28;20058;-76
2023/01/25 19:58:57;;;;;;;35.03;16.88;;;;;;;;;;10551518;28;20075;-78
2023/01/25 20:03:58;;;;;;;31.75;15.68;;;;;;;;;;10540676;28;20171;-77
2023/01/25 20:08:58;;;;;;;30.15;14.65;;;;;;;;;;10553500;28;20138;-79
2023/01/25 20:14:00;;;;;;;34.47;15.02;;;;;;;;;;10563331;28;20055;-78
2023/01/25 20:19:01;;;;;;;31.88;14.35;;;;;;;;;;10548856;28;20048;-77
2023/01/25 20:24:03;;;;;;;33.20;16.48;;;;;;;;;;10535214;28;20555;-75
2023/01/25 20:29:04;;;;;;;36.58;16.45;;;;;;;;;;10550657;28;20162;-79
2023/01/25 20:34:15;;;;;;;37.83;16.38;;;;;;;;;;10545404;28;20134;-76
2023/01/25 20:39:16;;;;;;;35.58;16.25;;;;;;;;;;10553337;28;20495;-80
2023/01/25 20:44:17;;;;;;;36.40;16.92;;;;;;;;;;10528354;28;20048;-77
2023/01/25 20:49:18;;;;;;;32.83;16.30;;;;;;;;;;10535280;28;20381;-79
2023/01/25 20:54:20;;;;;;;38.90;17.83;;;;;;;;;;10529521;28;20048;-81
2023/01/25 20:59:20;;;;;;;32.60;15.57;;;;;;;;;;10562652;28;20043;-74
2023/01/25 21:04:20;;;;;;;37.83;17.05;;;;;;;;;;10566581;28;20483;-76
2023/01/25 21:09:25;;;;;;;35.75;16.63;;;;;;;;;;10581412;28;20395;-75
2023/01/25 21:14:26;;;;;;;41.25;17.92;;;;;;;;;;10531557;28;20039;-78
2023/01/25 21:19:26;;;;;;;41.83;17.25;;;;;;;;;;10561897;28;20031;-76
2023/01/25 21:29:28;;;;;;;39.78;17.15;;;;;;;;;;10536501;28;20563;-78
2023/01/25 21:34:31;;;;;;;37.55;17.58;;;;;;;;;;10558423;28;20036;-76
2023/01/25 21:39:31;;;;;;;38.00;16.67;;;;;;;;;;10588731;27;20398;-77
2023/01/25 21:55:12;;;;;;;39.63;17.13;;;;;;;;;;10562942;28;20046;-77
2023/01/25 22:00:14;;;;;;;40.33;18.70;;;;;;;;;;10567859;28;20485;-76
2023/01/25 22:05:15;;;;;;;41.65;18.85;;;;;;;;;;10543940;28;20043;-76
2023/01/25 22:10:15;;;;;;;45.20;18.73;;;;;;;;;;10563423;28;20065;-75
2023/01/25 22:15:16;;;;;;;41.92;18.92;;;;;;;;;;10540684;28;20036;-80
2023/01/25 22:20:17;;;;;;;43.85;18.33;;;;;;;;;;10563356;28;20173;-77
2023/01/25 22:25:17;;;;;;;45.85;18.80;;;;;;;;;;10548407;28;20729;-76
2023/01/25 22:30:18;;;;;;;43.92;18.10;;;;;;;;;;10565642;28;20034;-80
2023/01/25 22:35:19;;;;;;;38.72;17.98;;;;;;;;;;10546385;28;20027;-77
2023/01/25 22:40:19;;;;;;;41.25;17.95;;;;;;;;;;10549669;27;20474;-80
2023/01/25 22:45:21;;;;;;;42.38;18.60;;;;;;;;;;10539485;28;20036;-77
2023/01/25 22:50:21;;;;;;;40.22;16.65;;;;;;;;;;10561696;28;20067;-76
2023/01/25 22:55:22;;;;;;;37.78;17.25;;;;;;;;;;10536536;28;20119;-75
2023/01/25 23:00:22;;;;;;;37.17;17.08;;;;;;;;;;10523238;28;20489;-78
2023/01/25 23:05:22;;;;;;;36.10;16.30;;;;;;;;;;10533278;28;20043;-77
2023/01/25 23:10:23;;;;;;;42.57;18.00;;;;;;;;;;10556739;27;20053;-76
2023/01/25 23:15:24;;;;;;;44.15;19.65;;;;;;;;;;10530077;28;20281;-77
2023/01/25 23:20:26;;;;;;;41.53;19.67;;;;;;;;;;10551347;28;20054;-76
2023/01/25 23:25:26;;;;;;;40.95;17.10;;;;;;;;;;10545180;28;20800;-77
2023/01/25 23:30:27;;;;;;;44.30;18.13;;;;;;;;;;10545126;28;20727;-79
2023/01/25 23:35:27;;;;;;;42.45;18.35;;;;;;;;;;10530701;28;20100;-76
2023/01/25 23:40:28;;;;;;;35.95;17.42;;;;;;;;;;10533038;28;20035;-79
2023/01/25 23:45:28;;;;;;;41.30;16.60;;;;;;;;;;10541216;28;20048;-78
2023/01/25 23:50:29;;;;;;;38.33;16.13;;;;;;;;;;10548600;28;20442;-77
2023/01/25 23:55:29;;;;;;;45.67;19.80;;;;;;;;;;10537161;28;20028;-76
